sensor_id;sensor_type;location;lat;lon;timestamp;P1;durP1;ratioP1;P2;durP2;ratioP2
50900;SDS011;36879;51.416;6.678;2023-01-16T04:30:48;2.13;;;1.07;;
50900;SDS011;36879;51.416;6.678;2023-01-16T04:33:14;3.17;;;1.00;;
50900;SDS011;36879;51.416;6.678;2023-01-16T04:35:40;4.93;;;1.40;;
50900;SDS011;36879;51.416;6.678;2023-01-16T04:38:06;5.57;;;2.65;;
50900;SDS011;36879;51.416;6.678;2023-01-16T04:40:35;6.25;;;2.90;;
50900;SDS011;36879;51.416;6.678;2023-01-16T04:43:01;9.43;;;3.97;;
50900;SDS011;36879;51.416;6.678;2023-01-16T04:45:27;8.30;;;3.40;;
50900;SDS011;36879;51.416;6.678;2023-01-16T04:47:53;5.85;;;3.03;;
50900;SDS011;36879;51.416;6.678;2023-01-16T04:50:19;6.18;;;2.45;;
50900;SDS011;36879;51.416;6.678;2023-01-16T04:52:46;4.38;;;1.63;;
50900;SDS011;36879;51.416;6.678;2023-01-16T04:55:12;4.10;;;1.60;;
50900;SDS011;36879;51.416;6.678;2023-01-16T04:57:38;5.68;;;1.92;;
50900;SDS011;36879;51.416;6.678;2023-01-16T05:00:05;4.20;;;1.55;;
50900;SDS011;36879;51.416;6.678;2023-01-16T05:02:32;3.20;;;1.67;;
50900;SDS011;36879;51.416;6.678;2023-01-16T05:04:58;2.50;;;1.10;;
50900;SDS011;36879;51.416;6.678;2023-01-16T05:07:24;3.20;;;1.23;;
50900;SDS011;36879;51.416;6.678;2023-01-16T05:09:52;2.35;;;1.17;;
50900;SDS011;36879;51.416;6.678;2023-01-16T05:12:19;5.70;;;1.08;;
50900;SDS011;36879;51.416;6.678;2023-01-16T05:14:45;3.92;;;1.23;;
50900;SDS011;36879;51.416;6.678;2023-01-16T05:17:11;4.00;;;0.75;;
50900;SDS011;36879;51.416;6.678;2023-01-16T05:19:37;3.50;;;0.90;;
50900;SDS011;36879;51.416;6.678;2023-01-16T05:22:03;2.15;;;0.63;;
50900;SDS011;36879;51.416;6.678;2023-01-16T05:24:29;2.05;;;1.05;;
50900;SDS011;36879;51.416;6.678;2023-01-16T05:26:56;2.38;;;1.02;;
50900;SDS011;36879;51.416;6.678;2023-01-16T05:29:22;4.13;;;0.68;;
50900;SDS011;36879;51.416;6.678;2023-01-16T05:31:48;4.65;;;0.80;;
50900;SDS011;36879;51.416;6.678;2023-01-16T05:34:14;3.22;;;0.93;;
50900;SDS011;36879;51.416;6.678;2023-01-16T05:36:40;4.55;;;1.02;;
50900;SDS011;36879;51.416;6.678;2023-01-16T05:39:06;4.70;;;1.00;;
50900;SDS011;36879;51.416;6.678;2023-01-16T05:41:32;3.47;;;0.77;;
50900;SDS011;36879;51.416;6.678;2023-01-16T05:43:58;1.95;;;1.02;;
50900;SDS011;36879;51.416;6.678;2023-01-16T05:46:24;3.47;;;1.38;;
50900;SDS011;36879;51.416;6.678;2023-01-16T05:48:53;4.28;;;1.55;;
50900;SDS011;36879;51.416;6.678;2023-01-16T05:51:19;4.97;;;1.92;;
50900;SDS011;36879;51.416;6.678;2023-01-16T05:53:49;4.88;;;0.93;;
50900;SDS011;36879;51.416;6.678;2023-01-16T05:56:15;2.65;;;1.10;;
50900;SDS011;36879;51.416;6.678;2023-01-16T05:58:44;7.85;;;0.93;;
50900;SDS011;36879;51.416;6.678;2023-01-16T06:01:10;1.98;;;0.60;;
50900;SDS011;36879;51.416;6.678;2023-01-16T06:03:36;2.92;;;0.75;;
50900;SDS011;36879;51.416;6.678;2023-01-16T06:06:06;2.08;;;0.82;;
50900;SDS011;36879;51.416;6.678;2023-01-16T06:08:32;5.55;;;1.52;;
50900;SDS011;36879;51.416;6.678;2023-01-16T06:10:58;1.90;;;0.95;;
50900;SDS011;36879;51.416;6.678;2023-01-16T06:13:24;2.03;;;0.73;;
50900;SDS011;36879;51.416;6.678;2023-01-16T06:15:50;3.88;;;1.10;;
50900;SDS011;36879;51.416;6.678;2023-01-16T06:18:16;1.80;;;1.00;;
50900;SDS011;36879;51.416;6.678;2023-01-16T06:20:44;1.95;;;1.17;;
50900;SDS011;36879;51.416;6.678;2023-01-16T06:23:11;7.47;;;1.30;;
50900;SDS011;36879;51.416;6.678;2023-01-16T06:25:37;1.05;;;0.75;;
50900;SDS011;36879;51.416;6.678;2023-01-16T06:28:05;3.47;;;1.88;;
50900;SDS011;36879;51.416;6.678;2023-01-16T06:30:31;2.40;;;1.00;;
50900;SDS011;36879;51.416;6.678;2023-01-16T06:33:00;1.10;;;0.70;;
50900;SDS011;36879;51.416;6.678;2023-01-16T06:35:26;2.78;;;0.90;;
50900;SDS011;36879;51.416;6.678;2023-01-16T06:37:52;3.03;;;0.98;;
50900;SDS011;36879;51.416;6.678;2023-01-16T06:40:18;3.30;;;1.10;;
50900;SDS011;36879;51.416;6.678;2023-01-16T06:42:44;2.58;;;0.70;;
50900;SDS011;36879;51.416;6.678;2023-01-16T06:45:10;2.03;;;0.68;;
50900;SDS011;36879;51.416;6.678;2023-01-16T06:47:36;1.27;;;0.55;;
50900;SDS011;36879;51.416;6.678;2023-01-16T06:50:03;3.85;;;1.00;;
50900;SDS011;36879;51.416;6.678;2023-01-16T06:52:29;3.75;;;1.13;;
50900;SDS011;36879;51.416;6.678;2023-01-16T06:54:55;2.53;;;1.38;;
50900;SDS011;36879;51.416;6.678;2023-01-16T06:57:21;3.88;;;1.20;;
50900;SDS011;36879;51.416;6.678;2023-01-16T06:59:47;3.40;;;0.98;;
50900;SDS011;36879;51.416;6.678;2023-01-16T07:02:15;2.13;;;1.20;;
50900;SDS011;36879;51.416;6.678;2023-01-16T07:04:41;5.38;;;1.00;;
50900;SDS011;36879;51.416;6.678;2023-01-16T07:07:09;1.83;;;0.80;;
50900;SDS011;36879;51.416;6.678;2023-01-16T07:09:35;3.80;;;1.05;;
50900;SDS011;36879;51.416;6.678;2023-01-16T07:12:01;3.08;;;1.13;;
50900;SDS011;36879;51.416;6.678;2023-01-16T07:17:32;1.90;;;0.65;;
50900;SDS011;36879;51.416;6.678;2023-01-16T07:20:17;10.20;;;2.08;;
50900;SDS011;36879;51.416;6.678;2023-01-16T07:23:17;4.32;;;1.40;;
50900;SDS011;36879;51.416;6.678;2023-01-16T07:25:44;4.93;;;0.80;;
50900;SDS011;36879;51.416;6.678;2023-01-16T07:28:13;7.53;;;0.85;;
50900;SDS011;36879;51.416;6.678;2023-01-16T07:30:39;4.20;;;1.10;;
50900;SDS011;36879;51.416;6.678;2023-01-16T07:33:05;2.70;;;1.70;;
50900;SDS011;36879;51.416;6.678;2023-01-16T07:35:34;1.85;;;1.02;;
50900;SDS011;36879;51.416;6.678;2023-01-16T07:38:01;2.25;;;0.80;;
50900;SDS011;36879;51.416;6.678;2023-01-16T07:40:27;2.97;;;0.80;;
50900;SDS011;36879;51.416;6.678;2023-01-16T07:42:53;6.60;;;1.98;;
50900;SDS011;36879;51.416;6.678;2023-01-16T07:45:19;5.57;;;1.27;;
50900;SDS011;36879;51.416;6.678;2023-01-16T07:47:45;5.93;;;1.10;;
50900;SDS011;36879;51.416;6.678;2023-01-16T07:50:11;5.47;;;2.03;;
50900;SDS011;36879;51.416;6.678;2023-01-16T07:52:38;8.30;;;1.55;;
50900;SDS011;36879;51.416;6.678;2023-01-16T07:55:04;3.33;;;1.52;;
50900;SDS011;36879;51.416;6.678;2023-01-16T07:57:30;4.10;;;1.17;;
50900;SDS011;36879;51.416;6.678;2023-01-16T07:59:56;4.93;;;1.83;;
50900;SDS011;36879;51.416;6.678;2023-01-16T08:02:22;4.35;;;1.90;;
50900;SDS011;36879;51.416;6.678;2023-01-16T08:04:56;4.40;;;1.70;;
50900;SDS011;36879;51.416;6.678;2023-01-16T08:07:22;3.95;;;1.50;;
50900;SDS011;36879;51.416;6.678;2023-01-16T08:09:50;6.63;;;1.85;;
50900;SDS011;36879;51.416;6.678;2023-01-16T08:12:16;4.45;;;1.20;;
50900;SDS011;36879;51.416;6.678;2023-01-16T08:14:45;3.90;;;1.40;;
50900;SDS011;36879;51.416;6.678;2023-01-16T08:17:11;9.07;;;1.80;;
50900;SDS011;36879;51.416;6.678;2023-01-16T08:19:37;2.80;;;1.67;;
50900;SDS011;36879;51.416;6.678;2023-01-16T08:22:03;4.97;;;1.40;;
50900;SDS011;36879;51.416;6.678;2023-01-16T08:24:29;7.05;;;1.23;;
50900;SDS011;36879;51.416;6.678;2023-01-16T08:26:56;4.05;;;1.10;;
50900;SDS011;36879;51.416;6.678;2023-01-16T08:29:22;4.85;;;1.33;;
50900;SDS011;36879;51.416;6.678;2023-01-16T08:31:51;4.97;;;1.35;;
50900;SDS011;36879;51.416;6.678;2023-01-16T08:34:20;4.55;;;1.50;;
50900;SDS011;36879;51.416;6.678;2023-01-16T08:36:46;6.63;;;1.70;;
50900;SDS011;36879;51.416;6.678;2023-01-16T08:39:14;2.67;;;1.40;;
50900;SDS011;36879;51.416;6.678;2023-01-16T08:41:43;3.20;;;1.30;;
50900;SDS011;36879;51.416;6.678;2023-01-16T08:44:27;2.45;;;1.40;;
50900;SDS011;36879;51.416;6.678;2023-01-16T08:47:13;2.92;;;1.42;;
50900;SDS011;36879;51.416;6.678;2023-01-16T08:49:58;1.90;;;0.82;;
50900;SDS011;36879;51.416;6.678;2023-01-16T08:52:43;1.88;;;1.23;;
50900;SDS011;36879;51.416;6.678;2023-01-16T08:55:12;2.22;;;1.20;;
50900;SDS011;36879;51.416;6.678;2023-01-16T08:57:40;3.53;;;1.35;;
50900;SDS011;36879;51.416;6.678;2023-01-16T09:00:26;7.88;;;1.98;;
50900;SDS011;36879;51.416;6.678;2023-01-16T09:02:52;6.35;;;2.05;;
50900;SDS011;36879;51.416;6.678;2023-01-16T09:05:20;6.75;;;1.83;;
50900;SDS011;36879;51.416;6.678;2023-01-16T09:07:46;11.13;;;4.82;;
50900;SDS011;36879;51.416;6.678;2023-01-16T09:10:12;12.75;;;4.93;;
50900;SDS011;36879;51.416;6.678;2023-01-16T09:12:39;8.93;;;4.13;;
50900;SDS011;36879;51.416;6.678;2023-01-16T09:15:24;10.50;;;4.85;;
50900;SDS011;36879;51.416;6.678;2023-01-16T09:17:50;12.93;;;5.82;;
50900;SDS011;36879;51.416;6.678;2023-01-16T09:20:17;15.23;;;6.22;;
50900;SDS011;36879;51.416;6.678;2023-01-16T09:22:43;10.85;;;4.75;;
50900;SDS011;36879;51.416;6.678;2023-01-16T09:25:09;13.35;;;5.35;;
50900;SDS011;36879;51.416;6.678;2023-01-16T09:27:35;15.45;;;7.88;;
50900;SDS011;36879;51.416;6.678;2023-01-16T09:30:02;26.88;;;13.07;;
50900;SDS011;36879;51.416;6.678;2023-01-16T09:32:29;33.00;;;13.95;;
50900;SDS011;36879;51.416;6.678;2023-01-16T09:34:55;15.88;;;9.40;;
50900;SDS011;36879;51.416;6.678;2023-01-16T09:37:23;14.98;;;5.50;;
50900;SDS011;36879;51.416;6.678;2023-01-16T09:39:49;12.00;;;6.75;;
50900;SDS011;36879;51.416;6.678;2023-01-16T09:45:20;23.33;;;10.48;;
50900;SDS011;36879;51.416;6.678;2023-01-16T09:47:48;11.43;;;5.75;;
50900;SDS011;36879;51.416;6.678;2023-01-16T09:52:43;17.08;;;6.80;;
50900;SDS011;36879;51.416;6.678;2023-01-16T09:55:38;11.95;;;6.47;;
50900;SDS011;36879;51.416;6.678;2023-01-16T09:58:24;10.93;;;5.93;;
50900;SDS011;36879;51.416;6.678;2023-01-16T10:01:06;11.60;;;5.30;;
50900;SDS011;36879;51.416;6.678;2023-01-16T10:03:32;15.30;;;6.38;;
50900;SDS011;36879;51.416;6.678;2023-01-16T10:06:02;16.05;;;6.80;;
50900;SDS011;36879;51.416;6.678;2023-01-16T10:08:34;15.15;;;6.75;;
50900;SDS011;36879;51.416;6.678;2023-01-16T10:11:10;14.90;;;5.43;;
50900;SDS011;36879;51.416;6.678;2023-01-16T10:13:49;9.43;;;4.25;;
50900;SDS011;36879;51.416;6.678;2023-01-16T10:19:24;11.10;;;3.88;;
50900;SDS011;36879;51.416;6.678;2023-01-16T10:27:13;15.65;;;4.78;;
50900;SDS011;36879;51.416;6.678;2023-01-16T10:29:44;18.63;;;9.65;;
50900;SDS011;36879;51.416;6.678;2023-01-16T10:32:14;14.05;;;5.68;;
50900;SDS011;36879;51.416;6.678;2023-01-16T10:37:18;6.75;;;3.83;;
50900;SDS011;36879;51.416;6.678;2023-01-16T10:39:45;5.95;;;2.30;;
50900;SDS011;36879;51.416;6.678;2023-01-16T10:42:12;6.22;;;2.90;;
50900;SDS011;36879;51.416;6.678;2023-01-16T10:47:45;9.45;;;3.40;;
50900;SDS011;36879;51.416;6.678;2023-01-16T10:50:30;12.73;;;3.55;;
50900;SDS011;36879;51.416;6.678;2023-01-16T10:52:56;5.50;;;2.53;;
50900;SDS011;36879;51.416;6.678;2023-01-16T10:55:22;9.85;;;2.67;;
50900;SDS011;36879;51.416;6.678;2023-01-16T10:57:52;6.15;;;2.70;;
50900;SDS011;36879;51.416;6.678;2023-01-16T11:00:20;6.82;;;2.67;;
50900;SDS011;36879;51.416;6.678;2023-01-16T11:02:54;9.38;;;3.67;;
50900;SDS011;36879;51.416;6.678;2023-01-16T11:05:27;8.63;;;4.15;;
50900;SDS011;36879;51.416;6.678;2023-01-16T11:07:54;7.20;;;2.60;;
50900;SDS011;36879;51.416;6.678;2023-01-16T11:10:20;6.75;;;2.38;;
50900;SDS011;36879;51.416;6.678;2023-01-16T11:12:47;3.17;;;1.60;;
50900;SDS011;36879;51.416;6.678;2023-01-16T11:15:32;4.25;;;1.92;;
50900;SDS011;36879;51.416;6.678;2023-01-16T11:18:28;4.07;;;2.33;;
50900;SDS011;36879;51.416;6.678;2023-01-16T11:21:02;7.47;;;3.67;;
50900;SDS011;36879;51.416;6.678;2023-01-16T11:23:38;12.85;;;4.55;;
50900;SDS011;36879;51.416;6.678;2023-01-16T11:26:06;9.68;;;3.90;;
50900;SDS011;36879;51.416;6.678;2023-01-16T11:28:33;3.75;;;2.08;;
50900;SDS011;36879;51.416;6.678;2023-01-16T11:31:00;6.28;;;3.20;;
50900;SDS011;36879;51.416;6.678;2023-01-16T11:33:33;5.38;;;2.22;;
50900;SDS011;36879;51.416;6.678;2023-01-16T11:36:00;6.10;;;2.40;;
50900;SDS011;36879;51.416;6.678;2023-01-16T11:38:27;7.93;;;2.78;;
50900;SDS011;36879;51.416;6.678;2023-01-16T11:40:55;5.30;;;2.05;;
50900;SDS011;36879;51.416;6.678;2023-01-16T11:43:23;4.32;;;2.65;;
50900;SDS011;36879;51.416;6.678;2023-01-16T11:48:44;8.45;;;4.07;;
50900;SDS011;36879;51.416;6.678;2023-01-16T11:51:16;7.90;;;3.35;;
50900;SDS011;36879;51.416;6.678;2023-01-16T11:53:44;5.03;;;2.25;;
50900;SDS011;36879;51.416;6.678;2023-01-16T12:01:23;4.93;;;2.10;;
50900;SDS011;36879;51.416;6.678;2023-01-16T12:06:38;7.77;;;3.30;;
50900;SDS011;36879;51.416;6.678;2023-01-16T12:38:10;5.75;;;2.40;;
50900;SDS011;36879;51.416;6.678;2023-01-16T12:46:03;6.78;;;2.58;;
50900;SDS011;36879;51.416;6.678;2023-01-16T12:49:04;5.18;;;1.65;;
50900;SDS011;36879;51.416;6.678;2023-01-16T13:01:38;6.35;;;2.22;;
50900;SDS011;36879;51.416;6.678;2023-01-16T13:04:10;6.28;;;2.83;;
50900;SDS011;36879;51.416;6.678;2023-01-16T13:06:42;6.47;;;2.85;;
50900;SDS011;36879;51.416;6.678;2023-01-16T13:09:44;6.13;;;2.15;;
50900;SDS011;36879;51.416;6.678;2023-01-16T13:12:05;6.90;;;3.83;;
50900;SDS011;36879;51.416;6.678;2023-01-16T13:14:54;8.60;;;3.67;;
50900;SDS011;36879;51.416;6.678;2023-01-16T13:17:22;4.07;;;1.63;;
50900;SDS011;36879;51.416;6.678;2023-01-16T13:19:48;5.38;;;2.00;;
50900;SDS011;36879;51.416;6.678;2023-01-16T13:22:27;3.05;;;1.38;;
50900;SDS011;36879;51.416;6.678;2023-01-16T13:24:59;5.88;;;1.75;;
50900;SDS011;36879;51.416;6.678;2023-01-16T13:27:34;5.80;;;2.42;;
50900;SDS011;36879;51.416;6.678;2023-01-16T13:30:03;4.40;;;1.92;;
50900;SDS011;36879;51.416;6.678;2023-01-16T13:32:34;5.63;;;3.05;;
50900;SDS011;36879;51.416;6.678;2023-01-16T13:35:08;5.47;;;3.28;;
50900;SDS011;36879;51.416;6.678;2023-01-16T13:37:50;4.93;;;2.58;;
50900;SDS011;36879;51.416;6.678;2023-01-16T13:42:54;5.43;;;2.88;;
50900;SDS011;36879;51.416;6.678;2023-01-16T13:45:29;4.82;;;2.97;;
50900;SDS011;36879;51.416;6.678;2023-01-16T13:48:48;6.40;;;3.25;;
50900;SDS011;36879;51.416;6.678;2023-01-16T13:51:12;3.55;;;1.60;;
50900;SDS011;36879;51.416;6.678;2023-01-16T13:53:39;4.18;;;1.73;;
50900;SDS011;36879;51.416;6.678;2023-01-16T13:56:13;4.25;;;2.55;;
50900;SDS011;36879;51.416;6.678;2023-01-16T13:58:40;8.75;;;4.18;;
50900;SDS011;36879;51.416;6.678;2023-01-16T14:01:27;6.95;;;2.75;;
50900;SDS011;36879;51.416;6.678;2023-01-16T14:09:20;4.57;;;2.47;;
50900;SDS011;36879;51.416;6.678;2023-01-16T14:17:28;7.85;;;4.10;;
50900;SDS011;36879;51.416;6.678;2023-01-16T14:20:02;7.85;;;3.20;;
50900;SDS011;36879;51.416;6.678;2023-01-16T14:25:01;8.82;;;5.10;;
50900;SDS011;36879;51.416;6.678;2023-01-16T14:29:55;6.15;;;3.95;;
50900;SDS011;36879;51.416;6.678;2023-01-16T14:32:26;11.05;;;4.70;;
50900;SDS011;36879;51.416;6.678;2023-01-16T14:39:48;11.38;;;5.22;;
50900;SDS011;36879;51.416;6.678;2023-01-16T14:42:19;14.35;;;5.07;;
50900;SDS011;36879;51.416;6.678;2023-01-16T14:47:55;15.93;;;6.20;;
50900;SDS011;36879;51.416;6.678;2023-01-16T14:53:45;18.67;;;6.97;;
50900;SDS011;36879;51.416;6.678;2023-01-16T14:56:33;9.75;;;5.18;;
50900;SDS011;36879;51.416;6.678;2023-01-16T14:59:07;10.10;;;5.47;;
50900;SDS011;36879;51.416;6.678;2023-01-16T15:01:37;7.63;;;3.83;;
50900;SDS011;36879;51.416;6.678;2023-01-16T15:04:23;9.55;;;4.75;;
50900;SDS011;36879;51.416;6.678;2023-01-16T15:06:52;9.98;;;5.20;;
50900;SDS011;36879;51.416;6.678;2023-01-16T15:09:18;11.35;;;6.38;;
50900;SDS011;36879;51.416;6.678;2023-01-16T15:11:52;19.08;;;7.97;;
50900;SDS011;36879;51.416;6.678;2023-01-16T15:14:21;8.05;;;3.22;;
50900;SDS011;36879;51.416;6.678;2023-01-16T15:16:52;3.60;;;2.25;;
50900;SDS011;36879;51.416;6.678;2023-01-16T15:19:38;4.35;;;1.35;;
50900;SDS011;36879;51.416;6.678;2023-01-16T15:22:55;2.17;;;1.00;;
50900;SDS011;36879;51.416;6.678;2023-01-16T15:27:40;3.20;;;1.48;;
50900;SDS011;36879;51.416;6.678;2023-01-16T15:30:09;3.78;;;2.25;;
50900;SDS011;36879;51.416;6.678;2023-01-16T15:32:58;5.57;;;3.53;;
50900;SDS011;36879;51.416;6.678;2023-01-16T15:35:53;6.93;;;2.05;;
50900;SDS011;36879;51.416;6.678;2023-01-16T16:32:35;4.05;;;2.58;;
50900;SDS011;36879;51.416;6.678;2023-01-16T20:01:56;16.70;;;10.90;;
50900;SDS011;36879;51.416;6.678;2023-01-16T20:04:28;17.10;;;11.68;;
50900;SDS011;36879;51.416;6.678;2023-01-16T20:06:54;16.70;;;10.18;;
50900;SDS011;36879;51.416;6.678;2023-01-16T20:09:20;18.42;;;10.48;;
50900;SDS011;36879;51.416;6.678;2023-01-16T20:11:46;19.52;;;11.88;;
50900;SDS011;36879;51.416;6.678;2023-01-16T20:14:31;20.17;;;11.50;;
50900;SDS011;36879;51.416;6.678;2023-01-16T20:16:58;18.67;;;12.38;;
50900;SDS011;36879;51.416;6.678;2023-01-16T20:19:24;24.27;;;14.52;;
50900;SDS011;36879;51.416;6.678;2023-01-16T20:21:54;21.33;;;12.85;;
50900;SDS011;36879;51.416;6.678;2023-01-16T20:24:21;21.02;;;12.45;;
50900;SDS011;36879;51.416;6.678;2023-01-16T20:26:47;25.35;;;14.75;;
50900;SDS011;36879;51.416;6.678;2023-01-16T20:29:15;23.17;;;13.15;;
50900;SDS011;36879;51.416;6.678;2023-01-16T20:31:41;25.88;;;15.45;;
50900;SDS011;36879;51.416;6.678;2023-01-16T20:34:08;23.00;;;14.60;;
50900;SDS011;36879;51.416;6.678;2023-01-16T20:36:34;20.10;;;12.15;;
50900;SDS011;36879;51.416;6.678;2023-01-16T20:39:00;20.08;;;13.80;;
50900;SDS011;36879;51.416;6.678;2023-01-16T20:41:26;22.95;;;13.73;;
50900;SDS011;36879;51.416;6.678;2023-01-16T20:44:15;17.15;;;12.45;;
50900;SDS011;36879;51.416;6.678;2023-01-16T20:47:03;18.40;;;12.15;;
50900;SDS011;36879;51.416;6.678;2023-01-16T20:49:29;19.63;;;12.63;;
50900;SDS011;36879;51.416;6.678;2023-01-16T20:51:55;15.48;;;10.75;;
50900;SDS011;36879;51.416;6.678;2023-01-16T20:54:22;17.40;;;11.32;;
50900;SDS011;36879;51.416;6.678;2023-01-16T20:56:48;18.63;;;12.02;;
50900;SDS011;36879;51.416;6.678;2023-01-16T20:59:14;17.02;;;11.07;;
50900;SDS011;36879;51.416;6.678;2023-01-16T21:01:40;21.13;;;12.32;;
50900;SDS011;36879;51.416;6.678;2023-01-16T21:04:07;20.02;;;12.40;;
50900;SDS011;36879;51.416;6.678;2023-01-16T21:06:33;18.52;;;12.48;;
50900;SDS011;36879;51.416;6.678;2023-01-16T21:08:59;16.63;;;11.13;;
50900;SDS011;36879;51.416;6.678;2023-01-16T21:11:26;21.33;;;12.43;;
50900;SDS011;36879;51.416;6.678;2023-01-16T21:14:11;21.38;;;12.45;;
50900;SDS011;36879;51.416;6.678;2023-01-16T21:16:45;20.13;;;11.98;;
50900;SDS011;36879;51.416;6.678;2023-01-16T21:19:38;20.33;;;11.03;;
50900;SDS011;36879;51.416;6.678;2023-01-16T21:22:27;14.90;;;10.15;;
50900;SDS011;36879;51.416;6.678;2023-01-16T21:24:53;15.82;;;9.55;;
50900;SDS011;36879;51.416;6.678;2023-01-16T21:27:22;15.60;;;8.40;;
50900;SDS011;36879;51.416;6.678;2023-01-16T21:29:52;14.68;;;8.07;;
50900;SDS011;36879;51.416;6.678;2023-01-16T21:32:19;13.27;;;8.38;;
50900;SDS011;36879;51.416;6.678;2023-01-16T22:32:47;16.33;;;9.70;;
50900;SDS011;36879;51.416;6.678;2023-01-16T22:35:13;15.88;;;9.82;;
50900;SDS011;36879;51.416;6.678;2023-01-16T22:37:40;16.80;;;10.20;;
50900;SDS011;36879;51.416;6.678;2023-01-16T22:40:06;16.52;;;8.32;;
50900;SDS011;36879;51.416;6.678;2023-01-16T22:42:32;13.77;;;8.10;;
50900;SDS011;36879;51.416;6.678;2023-01-16T22:44:58;16.40;;;8.13;;
50900;SDS011;36879;51.416;6.678;2023-01-16T22:48:03;16.75;;;7.55;;
50900;SDS011;36879;51.416;6.678;2023-01-16T22:50:29;11.38;;;7.30;;
50900;SDS011;36879;51.416;6.678;2023-01-16T22:52:55;12.90;;;7.22;;
50900;SDS011;36879;51.416;6.678;2023-01-16T22:55:21;15.93;;;6.57;;
50900;SDS011;36879;51.416;6.678;2023-01-16T22:57:47;10.07;;;6.15;;
50900;SDS011;36879;51.416;6.678;2023-01-16T23:00:14;10.25;;;6.15;;
50900;SDS011;36879;51.416;6.678;2023-01-16T23:02:40;14.93;;;6.63;;
50900;SDS011;36879;51.416;6.678;2023-01-16T23:05:06;10.95;;;6.13;;
50900;SDS011;36879;51.416;6.678;2023-01-16T23:07:32;10.75;;;6.10;;
50900;SDS011;36879;51.416;6.678;2023-01-16T23:09:58;11.05;;;6.22;;
50900;SDS011;36879;51.416;6.678;2023-01-16T23:12:24;11.93;;;7.00;;
50900;SDS011;36879;51.416;6.678;2023-01-16T23:14:50;9.32;;;5.30;;
50900;SDS011;36879;51.416;6.678;2023-01-16T23:17:16;12.38;;;6.80;;
50900;SDS011;36879;51.416;6.678;2023-01-16T23:19:42;9.75;;;6.15;;
50900;SDS011;36879;51.416;6.678;2023-01-16T23:22:08;13.27;;;6.70;;
50900;SDS011;36879;51.416;6.678;2023-01-16T23:24:34;8.85;;;5.65;;
50900;SDS011;36879;51.416;6.678;2023-01-16T23:27:01;8.55;;;5.07;;
50900;SDS011;36879;51.416;6.678;2023-01-16T23:29:27;8.38;;;5.32;;
50900;SDS011;36879;51.416;6.678;2023-01-16T23:31:53;8.45;;;5.10;;
50900;SDS011;36879;51.416;6.678;2023-01-16T23:34:20;8.60;;;5.18;;
50900;SDS011;36879;51.416;6.678;2023-01-16T23:36:53;8.23;;;4.80;;
50900;SDS011;36879;51.416;6.678;2023-01-16T23:39:21;8.32;;;4.63;;
50900;SDS011;36879;51.416;6.678;2023-01-16T23:41:47;10.57;;;5.70;;
50900;SDS011;36879;51.416;6.678;2023-01-16T23:44:32;9.32;;;4.88;;
50900;SDS011;36879;51.416;6.678;2023-01-16T23:47:13;8.68;;;4.78;;
50900;SDS011;36879;51.416;6.678;2023-01-16T23:49:50;8.88;;;4.93;;
50900;SDS011;36879;51.416;6.678;2023-01-16T23:52:23;7.40;;;4.55;;
50900;SDS011;36879;51.416;6.678;2023-01-16T23:54:49;10.00;;;4.25;;
50900;SDS011;36879;51.416;6.678;2023-01-16T23:57:17;9.13;;;5.00;;
50900;SDS011;36879;51.416;6.678;2023-01-16T23:59:43;7.18;;;3.92;;
